Time;durP1;ratioP1;P1;durP2;ratioP2;P2;SDS_P1;SDS_P2;PMS_P1;PMS_P2;Temp;Humidity;BMP_temperature;BMP_pressure;BME280_temperature;BME280_humidity;BME280_pressure;Samples;Min_cycle;Max_cycle;Signal;HPM_P1;HPM_P2
2023/01/07 00:01:11;;;;;;;1.17;1.08;;;;;;;;;;5022756;28;20028;-89
2023/01/07 00:03:37;;;;;;;1.73;1.10;;;;;;;;;;5011496;28;20040;-88
2023/01/07 00:06:09;;;;;;;0.68;0.60;;;;;;;;;;5009563;28;20255;-87
2023/01/07 00:08:36;;;;;;;0.80;0.77;;;;;;;;;;5037769;28;20030;-88
2023/01/07 00:11:03;;;;;;;0.90;0.85;;;;;;;;;;5006261;28;20037;-87
2023/01/07 00:13:29;;;;;;;1.05;1.00;;;;;;;;;;5022329;28;20026;-87
2023/01/07 00:16:37;;;;;;;1.25;1.00;;;;;;;;;;5028105;28;20447;-88
2023/01/07 00:19:04;;;;;;;0.82;0.82;;;;;;;;;;5010537;28;20058;-89
2023/01/07 00:21:30;;;;;;;5.10;0.90;;;;;;;;;;5026673;28;20026;-87
2023/01/07 00:24:01;;;;;;;0.98;0.98;;;;;;;;;;5016243;28;20032;-89
2023/01/07 00:26:30;;;;;;;0.75;0.75;;;;;;;;;;5015701;28;20025;-89
2023/01/07 00:28:56;;;;;;;0.80;0.80;;;;;;;;;;5005074;28;20047;-88
2023/01/07 00:31:24;;;;;;;1.00;0.82;;;;;;;;;;5010706;28;20029;-88
2023/01/07 00:34:05;;;;;;;1.08;0.95;;;;;;;;;;5023607;28;20152;-89
2023/01/07 00:36:42;;;;;;;0.73;0.73;;;;;;;;;;5009392;28;21089;-87
2023/01/07 00:39:14;;;;;;;0.80;0.80;;;;;;;;;;5022749;28;20028;-89
2023/01/07 00:42:52;;;;;;;1.17;1.02;;;;;;;;;;5009694;28;20030;-89
2023/01/07 00:44:25;;;;;;;0.90;0.90;;;;;;;;;;5029983;28;20037;-88
2023/01/07 00:46:50;;;;;;;1.20;0.85;;;;;;;;;;5007643;28;20403;-88
2023/01/07 00:49:16;;;;;;;1.75;1.25;;;;;;;;;;5030170;28;20045;-87
2023/01/07 00:51:41;;;;;;;0.95;0.82;;;;;;;;;;5011965;28;20064;-89
2023/01/07 00:54:09;;;;;;;1.23;1.00;;;;;;;;;;5019143;28;20026;-88
2023/01/07 00:56:35;;;;;;;2.00;0.90;;;;;;;;;;5015518;28;20475;-85
2023/01/07 00:59:00;;;;;;;1.60;1.00;;;;;;;;;;5039771;28;20042;-88
2023/01/07 01:01:25;;;;;;;1.48;0.80;;;;;;;;;;5014063;28;20098;-87
2023/01/07 01:03:51;;;;;;;0.93;0.77;;;;;;;;;;5023274;28;20085;-87
2023/01/07 01:06:16;;;;;;;0.75;0.75;;;;;;;;;;5003025;28;20029;-88
2023/01/07 01:08:59;;;;;;;3.40;0.80;;;;;;;;;;5033077;28;20013;-84
2023/01/07 01:11:25;;;;;;;3.72;1.20;;;;;;;;;;5010795;28;20064;-85
2023/01/07 01:13:50;;;;;;;1.00;0.90;;;;;;;;;;5028400;28;20036;-86
2023/01/07 01:16:17;;;;;;;1.50;0.93;;;;;;;;;;5012780;28;20041;-88
2023/01/07 01:21:51;;;;;;;0.65;0.65;;;;;;;;;;4959608;28;20040;-88
2023/01/07 01:24:16;;;;;;;0.80;0.80;;;;;;;;;;4993132;28;20466;-88
2023/01/07 01:26:41;;;;;;;0.90;0.90;;;;;;;;;;5008730;28;20056;-88
2023/01/07 01:29:15;;;;;;;2.75;1.10;;;;;;;;;;5017381;28;20033;-89
2023/01/07 01:31:44;;;;;;;0.93;0.93;;;;;;;;;;5013509;28;20029;-88
2023/01/07 01:34:09;;;;;;;1.02;0.90;;;;;;;;;;5003208;28;20029;-87
2023/01/07 01:36:34;;;;;;;1.48;1.13;;;;;;;;;;5001075;28;20026;-89
2023/01/07 01:39:00;;;;;;;1.25;1.15;;;;;;;;;;4994531;28;20021;-87
2023/01/07 01:41:25;;;;;;;0.98;0.82;;;;;;;;;;5010956;28;20107;-88
2023/01/07 01:43:51;;;;;;;1.17;1.08;;;;;;;;;;5017979;28;20036;-89
2023/01/07 01:46:37;;;;;;;0.80;0.80;;;;;;;;;;4996104;28;20025;-87
2023/01/07 01:50:03;;;;;;;;;;;;;;;;;;;;;
2023/01/07 01:52:51;;;;;;;3.08;1.15;;;;;;;;;;4998805;28;20038;-88
2023/01/07 01:55:20;;;;;;;0.90;0.90;;;;;;;;;;5002815;28;20060;-89
2023/01/07 01:57:49;;;;;;;1.40;1.15;;;;;;;;;;5010078;28;20426;-88
2023/01/07 02:00:15;;;;;;;2.05;1.02;;;;;;;;;;5012208;28;20033;-89
2023/01/07 02:02:48;;;;;;;1.10;1.00;;;;;;;;;;5007475;28;21149;-86
2023/01/07 02:05:15;;;;;;;1.65;0.80;;;;;;;;;;5013488;28;20033;-85
2023/01/07 02:07:40;;;;;;;1.10;1.10;;;;;;;;;;5009226;28;20112;-91
2023/01/07 02:13:57;;;;;;;3.35;2.10;;;;;;;;;;4998555;28;20110;-89
2023/01/07 02:16:55;;;;;;;9.13;3.83;;;;;;;;;;5009459;28;20040;-88
2023/01/07 02:19:56;;;;;;;14.77;4.47;;;;;;;;;;4994230;28;20612;-87
2023/01/07 02:22:40;;;;;;;15.65;5.57;;;;;;;;;;4940158;28;20047;-88
2023/01/07 02:25:11;;;;;;;13.55;3.47;;;;;;;;;;4991802;28;21251;-85
2023/01/07 02:27:43;;;;;;;3.63;2.42;;;;;;;;;;4995144;28;20110;-88
2023/01/07 02:30:49;;;;;;;4.00;2.15;;;;;;;;;;4995080;28;20400;-87
2023/01/07 02:33:22;;;;;;;9.40;3.65;;;;;;;;;;4996296;28;20341;-88
2023/01/07 02:36:11;;;;;;;21.33;7.82;;;;;;;;;;5014614;28;20034;-86
2023/01/07 02:39:01;;;;;;;10.95;4.70;;;;;;;;;;5012972;28;20036;-88
2023/01/07 02:41:48;;;;;;;19.80;6.85;;;;;;;;;;5011030;28;20029;-88
2023/01/07 02:44:31;;;;;;;16.77;6.68;;;;;;;;;;5008705;28;20042;-87
2023/01/07 02:47:10;;;;;;;10.18;4.25;;;;;;;;;;5011228;28;20064;-88
2023/01/07 02:49:36;;;;;;;6.07;2.90;;;;;;;;;;5013758;28;21323;-88
2023/01/07 02:52:19;;;;;;;5.93;2.55;;;;;;;;;;4993205;28;20033;-88
2023/01/07 02:54:49;;;;;;;3.50;1.40;;;;;;;;;;5011035;28;20057;-88
2023/01/07 02:57:32;;;;;;;4.30;1.45;;;;;;;;;;4996462;28;20106;-88
2023/01/07 03:00:32;;;;;;;2.28;1.00;;;;;;;;;;5012701;28;20025;-88
2023/01/07 03:03:25;;;;;;;2.40;1.10;;;;;;;;;;5011383;28;20033;-89
2023/01/07 03:06:41;;;;;;;0.90;0.77;;;;;;;;;;5001457;28;20032;-88
2023/01/07 03:09:17;;;;;;;1.42;0.70;;;;;;;;;;5018821;28;20664;-87
2023/01/07 03:12:03;;;;;;;1.10;0.63;;;;;;;;;;5018372;28;20037;-85
2023/01/07 03:14:48;;;;;;;0.55;0.55;;;;;;;;;;5003736;28;20029;-87
2023/01/07 03:17:20;;;;;;;0.50;0.50;;;;;;;;;;5021328;28;20021;-87
2023/01/07 03:19:51;;;;;;;0.40;0.30;;;;;;;;;;5010316;28;20022;-88
2023/01/07 03:22:19;;;;;;;0.47;0.47;;;;;;;;;;5028437;28;20038;-89
2023/01/07 03:24:48;;;;;;;0.70;0.70;;;;;;;;;;5025549;28;20029;-87
2023/01/07 03:27:15;;;;;;;0.43;0.40;;;;;;;;;;5014398;28;20053;-88
2023/01/07 03:29:41;;;;;;;1.25;1.15;;;;;;;;;;5029310;28;20033;-87
2023/01/07 03:32:21;;;;;;;2.03;0.77;;;;;;;;;;5028349;28;20038;-89
2023/01/07 03:34:46;;;;;;;0.57;0.57;;;;;;;;;;5025472;28;20029;-88
2023/01/07 03:37:15;;;;;;;0.57;0.57;;;;;;;;;;5013285;28;20021;-87
2023/01/07 03:39:42;;;;;;;4.85;0.73;;;;;;;;;;5013963;28;20052;-88
2023/01/07 03:44:55;;;;;;;0.47;0.40;;;;;;;;;;5029807;28;20029;-87
2023/01/07 03:47:22;;;;;;;0.52;0.50;;;;;;;;;;5031421;28;20017;-88
2023/01/07 03:49:47;;;;;;;0.50;0.50;;;;;;;;;;5011881;28;20029;-88
2023/01/07 03:52:12;;;;;;;0.50;0.50;;;;;;;;;;5027796;28;20038;-86
2023/01/07 03:54:38;;;;;;;0.57;0.57;;;;;;;;;;5026934;28;20029;-87
2023/01/07 03:57:03;;;;;;;0.60;0.60;;;;;;;;;;5023803;28;20022;-86
2023/01/07 03:59:29;;;;;;;0.63;0.63;;;;;;;;;;5014662;28;20062;-88
2023/01/07 04:01:55;;;;;;;0.50;0.50;;;;;;;;;;5002657;28;20079;-87
2023/01/07 04:04:20;;;;;;;0.60;0.60;;;;;;;;;;5004129;28;20124;-88
2023/01/07 04:06:46;;;;;;;0.40;0.40;;;;;;;;;;5013172;28;20022;-85
2023/01/07 04:09:13;;;;;;;0.85;0.60;;;;;;;;;;5016840;28;20026;-87
2023/01/07 04:11:39;;;;;;;0.80;0.60;;;;;;;;;;5011378;28;20139;-88
2023/01/07 04:14:05;;;;;;;0.60;0.60;;;;;;;;;;5015243;28;20045;-87
2023/01/07 04:16:30;;;;;;;0.70;0.70;;;;;;;;;;4999393;28;20025;-88
2023/01/07 04:18:55;;;;;;;0.88;0.60;;;;;;;;;;5018648;28;20021;-89
2023/01/07 04:21:21;;;;;;;0.65;0.65;;;;;;;;;;5015143;28;20037;-88
2023/01/07 04:23:46;;;;;;;4.53;1.10;;;;;;;;;;5019279;28;20033;-88
2023/01/07 04:26:11;;;;;;;1.65;0.80;;;;;;;;;;5005819;28;20021;-87
2023/01/07 04:28:37;;;;;;;0.60;0.60;;;;;;;;;;5008206;28;20314;-87
2023/01/07 04:31:03;;;;;;;0.77;0.77;;;;;;;;;;5016668;28;20037;-88
2023/01/07 04:33:28;;;;;;;2.85;0.70;;;;;;;;;;5029988;28;20056;-89
2023/01/07 04:35:53;;;;;;;0.60;0.60;;;;;;;;;;5031457;28;20017;-87
2023/01/07 04:38:19;;;;;;;1.05;0.60;;;;;;;;;;5016565;28;20484;-88
2023/01/07 04:40:44;;;;;;;0.50;0.50;;;;;;;;;;5034971;28;20033;-88
2023/01/07 04:43:10;;;;;;;0.80;0.60;;;;;;;;;;5035477;28;20022;-88
2023/01/07 04:45:35;;;;;;;0.75;0.75;;;;;;;;;;5018906;28;20022;-88
2023/01/07 04:48:01;;;;;;;0.50;0.50;;;;;;;;;;5015362;28;20018;-88
2023/01/07 04:50:26;;;;;;;0.60;0.60;;;;;;;;;;5026542;28;20052;-89
2023/01/07 04:52:52;;;;;;;0.68;0.68;;;;;;;;;;5011818;28;20145;-88
2023/01/07 04:55:17;;;;;;;1.10;0.90;;;;;;;;;;5007438;28;20031;-89
2023/01/07 04:57:43;;;;;;;2.50;0.90;;;;;;;;;;5004670;28;20029;-89
2023/01/07 05:00:09;;;;;;;0.50;0.50;;;;;;;;;;5006342;28;20076;-88
2023/01/07 05:02:35;;;;;;;0.88;0.85;;;;;;;;;;5006739;28;20029;-88
2023/01/07 05:05:00;;;;;;;1.90;1.10;;;;;;;;;;5025998;28;20029;-86
2023/01/07 05:07:26;;;;;;;1.55;1.42;;;;;;;;;;5003127;28;20094;-89
2023/01/07 05:09:54;;;;;;;1.50;1.40;;;;;;;;;;5021483;28;20416;-88
2023/01/07 05:12:19;;;;;;;1.33;1.23;;;;;;;;;;4998276;28;20030;-88
2023/01/07 05:14:45;;;;;;;1.40;1.15;;;;;;;;;;5003131;28;20045;-87
2023/01/07 05:17:10;;;;;;;1.48;1.38;;;;;;;;;;5018266;28;20052;-87
2023/01/07 05:19:36;;;;;;;1.40;1.30;;;;;;;;;;5021923;28;20046;-87
2023/01/07 05:22:01;;;;;;;1.58;1.30;;;;;;;;;;5020320;28;20029;-86
2023/01/07 05:24:26;;;;;;;2.25;1.60;;;;;;;;;;5002809;28;20103;-89
2023/01/07 05:26:52;;;;;;;4.55;1.75;;;;;;;;;;5017290;28;20044;-87
2023/01/07 05:29:17;;;;;;;1.98;1.77;;;;;;;;;;5018624;28;20159;-90
2023/01/07 05:31:45;;;;;;;2.30;1.50;;;;;;;;;;5014714;28;20151;-88
2023/01/07 05:34:10;;;;;;;1.98;1.50;;;;;;;;;;5022099;28;20025;-89
2023/01/07 05:36:36;;;;;;;1.67;1.50;;;;;;;;;;5020714;28;20140;-88
2023/01/07 05:39:01;;;;;;;1.67;1.50;;;;;;;;;;5020481;28;20021;-87
2023/01/07 05:41:26;;;;;;;3.47;1.50;;;;;;;;;;5002623;28;20045;-88
2023/01/07 05:43:51;;;;;;;2.90;1.95;;;;;;;;;;5017021;28;20040;-88
2023/01/07 05:46:17;;;;;;;3.30;1.80;;;;;;;;;;5017073;28;20527;-88
2023/01/07 05:48:43;;;;;;;5.43;1.90;;;;;;;;;;5021675;28;20039;-88
2023/01/07 05:51:09;;;;;;;1.90;1.80;;;;;;;;;;5001011;28;20079;-89
2023/01/07 05:53:34;;;;;;;1.58;1.48;;;;;;;;;;5001622;28;20034;-89
2023/01/07 05:56:00;;;;;;;1.80;1.63;;;;;;;;;;5001199;28;20048;-88
2023/01/07 05:58:26;;;;;;;2.35;1.90;;;;;;;;;;5023527;28;20029;-88
2023/01/07 06:00:52;;;;;;;2.70;1.65;;;;;;;;;;5019338;28;20053;-88
2023/01/07 06:03:19;;;;;;;2.13;1.73;;;;;;;;;;5015394;28;20068;-87
2023/01/07 06:05:46;;;;;;;2.28;1.77;;;;;;;;;;5016616;28;20033;-89
2023/01/07 06:08:12;;;;;;;3.08;2.20;;;;;;;;;;5018976;28;20030;-88
2023/01/07 06:10:37;;;;;;;2.72;1.70;;;;;;;;;;5018310;28;20100;-90
2023/01/07 06:13:03;;;;;;;2.95;2.13;;;;;;;;;;5020463;28;20029;-88
2023/01/07 06:15:28;;;;;;;1.80;1.70;;;;;;;;;;5020696;28;20036;-89
2023/01/07 06:17:53;;;;;;;3.83;1.80;;;;;;;;;;5020742;28;20043;-88
2023/01/07 06:20:19;;;;;;;2.88;1.83;;;;;;;;;;5021142;28;20610;-89
2023/01/07 06:22:44;;;;;;;1.83;1.63;;;;;;;;;;5020575;28;20111;-88
2023/01/07 06:25:11;;;;;;;2.38;2.03;;;;;;;;;;5021369;28;20076;-89
2023/01/07 06:27:36;;;;;;;1.98;1.75;;;;;;;;;;5004204;28;20093;-89
2023/01/07 06:30:04;;;;;;;4.20;2.13;;;;;;;;;;5026403;28;20848;-85
2023/01/07 06:32:29;;;;;;;2.45;1.70;;;;;;;;;;5013190;28;20033;-86
2023/01/07 06:34:54;;;;;;;1.30;1.20;;;;;;;;;;5027014;28;20033;-89
2023/01/07 06:37:20;;;;;;;1.50;1.40;;;;;;;;;;5022043;28;20021;-89
2023/01/07 06:39:45;;;;;;;2.53;1.42;;;;;;;;;;5024266;28;20013;-89
2023/01/07 06:42:10;;;;;;;1.90;1.45;;;;;;;;;;5028397;28;20026;-89
2023/01/07 06:44:36;;;;;;;2.33;1.55;;;;;;;;;;5027556;28;20053;-90
2023/01/07 06:47:01;;;;;;;2.90;1.65;;;;;;;;;;5024048;28;20446;-89
2023/01/07 06:49:26;;;;;;;1.08;1.08;;;;;;;;;;5017254;28;20020;-85
2023/01/07 06:51:52;;;;;;;2.58;1.30;;;;;;;;;;5042134;28;20030;-86
2023/01/07 06:54:17;;;;;;;1.38;1.27;;;;;;;;;;5049076;28;20035;-85
2023/01/07 06:56:42;;;;;;;1.30;1.20;;;;;;;;;;5034935;28;20053;-86
2023/01/07 06:59:09;;;;;;;0.98;0.90;;;;;;;;;;5044852;28;20037;-87
2023/01/07 07:01:34;;;;;;;1.25;1.08;;;;;;;;;;5045639;28;20021;-88
2023/01/07 07:03:59;;;;;;;0.90;0.88;;;;;;;;;;5031209;28;20029;-85
2023/01/07 07:06:25;;;;;;;1.20;1.15;;;;;;;;;;5036112;28;20037;-85
2023/01/07 07:08:51;;;;;;;0.98;0.98;;;;;;;;;;5029350;28;20020;-86
2023/01/07 07:11:16;;;;;;;1.00;1.00;;;;;;;;;;5048458;28;20017;-85
2023/01/07 07:13:42;;;;;;;5.20;3.03;;;;;;;;;;5037973;28;20029;-85
2023/01/07 07:16:07;;;;;;;1.20;1.10;;;;;;;;;;5029292;28;20021;-86
2023/01/07 07:18:32;;;;;;;2.35;1.13;;;;;;;;;;5029903;28;20033;-87
2023/01/07 07:20:58;;;;;;;2.10;1.10;;;;;;;;;;5021332;28;20071;-88
2023/01/07 07:23:23;;;;;;;0.80;0.80;;;;;;;;;;5004759;28;20029;-87
2023/01/07 07:25:49;;;;;;;1.15;1.10;;;;;;;;;;5017967;28;20022;-89
2023/01/07 07:28:15;;;;;;;0.75;0.75;;;;;;;;;;5020984;28;20033;-88
2023/01/07 07:30:41;;;;;;;2.22;0.80;;;;;;;;;;5020742;28;20103;-88
2023/01/07 07:33:06;;;;;;;1.02;0.93;;;;;;;;;;5004814;28;21811;-88
2023/01/07 07:35:32;;;;;;;1.02;1.02;;;;;;;;;;5018454;28;20033;-86
2023/01/07 07:37:57;;;;;;;1.08;1.00;;;;;;;;;;5014368;28;20021;-87
2023/01/07 07:40:23;;;;;;;1.90;1.13;;;;;;;;;;5009878;28;20144;-90
2023/01/07 07:42:48;;;;;;;0.85;0.85;;;;;;;;;;5028585;28;20028;-88
2023/01/07 07:45:15;;;;;;;1.48;1.10;;;;;;;;;;5029282;28;20038;-90
2023/01/07 07:47:41;;;;;;;0.82;0.82;;;;;;;;;;5015796;28;20040;-88
2023/01/07 07:50:07;;;;;;;1.05;0.95;;;;;;;;;;5039683;28;20064;-89
2023/01/07 07:52:32;;;;;;;1.30;1.00;;;;;;;;;;5038446;28;20025;-89
2023/01/07 07:54:57;;;;;;;1.02;0.85;;;;;;;;;;5039064;28;20116;-88
2023/01/07 07:57:23;;;;;;;0.98;0.98;;;;;;;;;;5034019;28;20072;-88
2023/01/07 07:59:51;;;;;;;2.65;1.08;;;;;;;;;;5027351;28;20029;-89
2023/01/07 08:02:18;;;;;;;0.70;0.68;;;;;;;;;;5011600;28;20022;-90
2023/01/07 08:04:43;;;;;;;1.00;1.00;;;;;;;;;;5009784;28;20123;-90
2023/01/07 08:07:11;;;;;;;0.57;0.57;;;;;;;;;;5024087;28;20034;-89
2023/01/07 08:09:36;;;;;;;0.70;0.70;;;;;;;;;;5034166;28;20029;-90
2023/01/07 08:12:02;;;;;;;1.13;0.80;;;;;;;;;;5032379;28;20029;-91
2023/01/07 08:14:27;;;;;;;3.58;1.10;;;;;;;;;;5046492;28;20029;-87
2023/01/07 08:16:52;;;;;;;1.98;0.80;;;;;;;;;;5029858;28;20030;-89
2023/01/07 08:19:18;;;;;;;0.63;0.63;;;;;;;;;;5018327;28;20029;-90
2023/01/07 08:21:43;;;;;;;1.30;1.00;;;;;;;;;;5025039;28;20038;-90
2023/01/07 08:24:08;;;;;;;0.80;0.80;;;;;;;;;;5024747;28;20029;-88
2023/01/07 08:26:34;;;;;;;4.43;0.73;;;;;;;;;;5006505;28;20095;-90
2023/01/07 08:28:59;;;;;;;0.90;0.50;;;;;;;;;;5032992;28;20033;-89
2023/01/07 08:31:24;;;;;;;0.60;0.60;;;;;;;;;;5038916;28;20083;-89
2023/01/07 08:33:50;;;;;;;0.80;0.80;;;;;;;;;;5019554;28;20076;-89
2023/01/07 08:36:15;;;;;;;0.88;0.88;;;;;;;;;;5036774;28;20025;-89
2023/01/07 08:38:41;;;;;;;3.58;0.80;;;;;;;;;;5039131;28;20495;-88
2023/01/07 08:41:06;;;;;;;1.40;1.10;;;;;;;;;;5020831;28;20025;-87
2023/01/07 08:43:32;;;;;;;0.98;0.88;;;;;;;;;;5043283;28;20096;-88
2023/01/07 08:45:58;;;;;;;0.77;0.77;;;;;;;;;;5026513;28;20033;-88
2023/01/07 08:48:23;;;;;;;1.15;1.05;;;;;;;;;;5037643;28;20056;-88
2023/01/07 08:50:51;;;;;;;1.27;1.02;;;;;;;;;;5036386;28;20396;-87
2023/01/07 08:53:19;;;;;;;0.90;0.90;;;;;;;;;;5019751;28;20052;-88
2023/01/07 08:55:45;;;;;;;0.80;0.80;;;;;;;;;;5036731;28;20050;-88
2023/01/07 08:58:11;;;;;;;0.70;0.70;;;;;;;;;;5037616;28;20022;-91
2023/01/07 09:00:37;;;;;;;1.95;1.00;;;;;;;;;;5033550;28;20071;-88
2023/01/07 09:03:02;;;;;;;0.70;0.70;;;;;;;;;;5019248;28;20294;-87
2023/01/07 09:05:28;;;;;;;0.77;0.77;;;;;;;;;;5042797;28;20014;-87
2023/01/07 09:07:54;;;;;;;0.88;0.85;;;;;;;;;;5025951;28;20083;-88
2023/01/07 09:10:20;;;;;;;0.68;0.60;;;;;;;;;;5019764;28;20025;-90
2023/01/07 09:12:45;;;;;;;4.57;1.10;;;;;;;;;;5018286;28;20527;-87
2023/01/07 09:15:11;;;;;;;0.90;0.70;;;;;;;;;;5019912;28;20035;-87
2023/01/07 09:17:36;;;;;;;0.80;0.80;;;;;;;;;;5021546;28;20022;-85
2023/01/07 09:20:03;;;;;;;0.88;0.88;;;;;;;;;;5004796;28;20057;-88
2023/01/07 09:22:30;;;;;;;2.15;0.93;;;;;;;;;;5004253;28;20759;-88
2023/01/07 09:24:56;;;;;;;1.65;0.98;;;;;;;;;;5017372;28;20017;-89
2023/01/07 09:27:21;;;;;;;1.38;1.27;;;;;;;;;;5021107;28;20032;-88
2023/01/07 09:29:47;;;;;;;1.45;1.20;;;;;;;;;;5004481;28;20032;-88
2023/01/07 09:32:13;;;;;;;1.05;0.70;;;;;;;;;;5007918;28;20030;-88
2023/01/07 09:34:38;;;;;;;1.02;1.00;;;;;;;;;;5025857;28;20721;-90
2023/01/07 09:37:04;;;;;;;1.17;1.05;;;;;;;;;;5023740;28;20379;-88
2023/01/07 09:39:29;;;;;;;2.10;1.17;;;;;;;;;;5034683;28;20056;-88
2023/01/07 09:42:07;;;;;;;1.35;1.10;;;;;;;;;;5016782;28;20024;-88
2023/01/07 09:45:20;;;;;;;2.10;1.20;;;;;;;;;;5035034;28;20492;-90
2023/01/07 09:47:49;;;;;;;0.90;0.90;;;;;;;;;;4978813;28;20132;-89
2023/01/07 09:50:51;;;;;;;1.05;0.93;;;;;;;;;;4990225;28;20114;-88
2023/01/07 09:53:23;;;;;;;1.20;1.10;;;;;;;;;;5011685;28;20395;-89
2023/01/07 09:55:51;;;;;;;1.40;1.20;;;;;;;;;;5023619;28;20041;-89
2023/01/07 09:58:19;;;;;;;2.08;1.55;;;;;;;;;;5003979;28;20036;-89
2023/01/07 10:01:06;;;;;;;1.17;1.08;;;;;;;;;;5000754;28;20488;-89
2023/01/07 10:03:49;;;;;;;1.45;1.23;;;;;;;;;;5013227;28;20025;-88
2023/01/07 10:06:39;;;;;;;3.30;1.23;;;;;;;;;;5010702;28;20038;-88
2023/01/07 10:09:37;;;;;;;1.17;1.10;;;;;;;;;;5011230;28;20094;-87
2023/01/07 10:12:45;;;;;;;1.48;1.33;;;;;;;;;;5008757;28;20149;-86
2023/01/07 10:15:20;;;;;;;1.92;1.63;;;;;;;;;;5011300;28;20033;-87
2023/01/07 10:17:52;;;;;;;1.50;1.40;;;;;;;;;;5010082;28;20026;-87
2023/01/07 10:20:28;;;;;;;1.90;1.60;;;;;;;;;;5013586;28;20528;-86
2023/01/07 10:22:59;;;;;;;3.30;1.80;;;;;;;;;;5010022;28;20118;-85
2023/01/07 10:25:39;;;;;;;3.53;2.33;;;;;;;;;;5014447;28;20021;-86
2023/01/07 10:28:20;;;;;;;2.17;1.67;;;;;;;;;;5013202;28;20030;-87
2023/01/07 10:30:50;;;;;;;2.00;1.73;;;;;;;;;;5011669;28;20029;-89
2023/01/07 10:33:28;;;;;;;2.25;1.80;;;;;;;;;;5003744;28;20029;-87
2023/01/07 10:36:08;;;;;;;1.80;1.70;;;;;;;;;;5024359;28;20021;-86
2023/01/07 10:38:39;;;;;;;1.85;1.60;;;;;;;;;;5023386;28;20037;-87
2023/01/07 10:41:18;;;;;;;2.53;1.90;;;;;;;;;;5024128;28;20030;-87
2023/01/07 10:43:50;;;;;;;1.42;1.33;;;;;;;;;;5016393;28;20033;-86
2023/01/07 10:47:03;;;;;;;1.83;1.38;;;;;;;;;;5025963;28;20034;-88
2023/01/07 10:49:47;;;;;;;2.55;1.67;;;;;;;;;;5019149;28;20059;-86
2023/01/07 10:52:31;;;;;;;2.25;1.70;;;;;;;;;;5023242;28;20045;-84
2023/01/07 10:55:09;;;;;;;2.10;1.50;;;;;;;;;;5038229;28;20123;-87
2023/01/07 10:57:36;;;;;;;2.38;1.50;;;;;;;;;;5011694;28;20014;-85
2023/01/07 11:00:05;;;;;;;2.53;1.60;;;;;;;;;;5026488;28;20483;-87
2023/01/07 11:02:31;;;;;;;1.50;1.40;;;;;;;;;;5026952;28;20395;-86
2023/01/07 11:04:57;;;;;;;1.77;1.55;;;;;;;;;;5012906;28;20025;-86
2023/01/07 11:07:39;;;;;;;2.90;1.88;;;;;;;;;;5018882;28;20065;-87
2023/01/07 11:10:22;;;;;;;2.25;1.70;;;;;;;;;;5027835;28;20025;-89
2023/01/07 11:12:52;;;;;;;1.60;1.38;;;;;;;;;;5008871;28;20041;-86
2023/01/07 11:15:31;;;;;;;2.38;1.70;;;;;;;;;;5029712;28;20479;-86
2023/01/07 11:18:20;;;;;;;1.85;1.70;;;;;;;;;;5012688;28;20558;-87
2023/01/07 11:20:52;;;;;;;2.00;1.52;;;;;;;;;;5008950;28;20487;-86
2023/01/07 11:23:31;;;;;;;2.33;1.83;;;;;;;;;;5011807;28;20048;-88
2023/01/07 11:26:16;;;;;;;2.30;1.70;;;;;;;;;;5001240;28;20176;-85
2023/01/07 11:28:51;;;;;;;4.25;2.05;;;;;;;;;;5025524;28;20025;-85
2023/01/07 11:31:18;;;;;;;2.55;2.00;;;;;;;;;;5008202;28;20021;-87
2023/01/07 11:33:52;;;;;;;3.72;1.75;;;;;;;;;;5014953;28;20094;-87
2023/01/07 11:36:18;;;;;;;1.70;1.60;;;;;;;;;;5047977;28;20033;-85
2023/01/07 11:38:44;;;;;;;6.38;3.60;;;;;;;;;;5029081;28;20044;-89
2023/01/07 11:41:49;;;;;;;4.93;2.42;;;;;;;;;;5037946;28;20029;-87
2023/01/07 11:44:15;;;;;;;4.00;2.38;;;;;;;;;;5010919;28;20037;-86
2023/01/07 11:46:43;;;;;;;5.13;2.50;;;;;;;;;;5019545;28;20103;-86
2023/01/07 11:49:20;;;;;;;3.53;2.00;;;;;;;;;;5056434;28;20495;-87
2023/01/07 11:51:45;;;;;;;3.90;3.00;;;;;;;;;;5021768;28;20044;-86
2023/01/07 11:54:23;;;;;;;3.78;2.35;;;;;;;;;;5015613;28;20033;-85
2023/01/07 11:56:49;;;;;;;2.45;1.65;;;;;;;;;;5031030;28;20034;-87
2023/01/07 11:59:35;;;;;;;2.65;1.95;;;;;;;;;;5018931;28;20402;-87
2023/01/07 12:02:00;;;;;;;2.17;1.80;;;;;;;;;;5020514;28;20061;-89
2023/01/07 12:04:29;;;;;;;2.42;1.98;;;;;;;;;;5031257;28;20432;-88
2023/01/07 12:07:01;;;;;;;3.67;2.15;;;;;;;;;;5026778;28;20048;-88
2023/01/07 12:09:35;;;;;;;;;;;;;;;;;;5010462;28;20021;-86
2023/01/07 12:12:33;;;;;;;2.88;1.90;;;;;;;;;;5036768;28;20338;-87
2023/01/07 12:15:20;;;;;;;6.55;2.53;;;;;;;;;;5026437;28;20376;-89
2023/01/07 12:17:49;;;;;;;1.67;1.58;;;;;;;;;;5039440;28;20033;-88
2023/01/07 12:20:45;;;;;;;2.00;1.80;;;;;;;;;;5029617;28;20029;-84
2023/01/07 12:23:36;;;;;;;3.50;2.28;;;;;;;;;;5040510;28;20402;-87
2023/01/07 12:26:17;;;;;;;2.75;2.13;;;;;;;;;;5040063;28;20017;-86
2023/01/07 12:29:04;;;;;;;2.97;2.10;;;;;;;;;;5023773;28;20041;-88
2023/01/07 12:31:42;;;;;;;3.58;2.55;;;;;;;;;;5026780;28;20105;-87
2023/01/07 12:34:35;;;;;;;4.03;2.03;;;;;;;;;;5018808;28;20089;-87
2023/01/07 12:37:08;;;;;;;3.70;2.33;;;;;;;;;;5039226;28;20025;-88
2023/01/07 12:39:39;;;;;;;3.88;2.20;;;;;;;;;;5040202;28;20108;-86
2023/01/07 12:42:09;;;;;;;3.85;2.30;;;;;;;;;;5021156;28;20094;-89
2023/01/07 12:44:46;;;;;;;5.50;2.47;;;;;;;;;;5019361;28;20053;-87
2023/01/07 12:47:20;;;;;;;2.80;2.13;;;;;;;;;;5031384;28;20096;-86
2023/01/07 12:49:48;;;;;;;2.72;1.92;;;;;;;;;;5024064;28;20049;-88
2023/01/07 12:52:19;;;;;;;7.53;2.17;;;;;;;;;;5029043;28;20548;-88
2023/01/07 12:55:07;;;;;;;3.25;2.40;;;;;;;;;;5017905;28;20053;-87
2023/01/07 12:57:36;;;;;;;4.63;2.58;;;;;;;;;;5042219;28;20121;-84
2023/01/07 13:00:13;;;;;;;3.08;2.10;;;;;;;;;;5036706;28;20072;-85
2023/01/07 13:03:22;;;;;;;3.33;2.33;;;;;;;;;;5035004;28;20030;-86
2023/01/07 13:06:37;;;;;;;3.08;2.50;;;;;;;;;;5027276;28;20847;-87
2023/01/07 13:09:31;;;;;;;6.07;2.40;;;;;;;;;;5038518;28;20033;-87
2023/01/07 13:14:53;;;;;;;6.10;2.60;;;;;;;;;;5020651;28;20076;-89
2023/01/07 13:17:27;;;;;;;3.88;2.50;;;;;;;;;;5025926;28;20472;-86
2023/01/07 13:19:54;;;;;;;5.65;2.80;;;;;;;;;;5019166;28;20025;-87
2023/01/07 13:22:32;;;;;;;2.95;2.20;;;;;;;;;;5016596;28;20107;-88
2023/01/07 13:25:11;;;;;;;3.03;2.08;;;;;;;;;;5016553;28;20018;-87
2023/01/07 13:28:01;;;;;;;2.50;1.90;;;;;;;;;;5025113;28;20024;-86
2023/01/07 13:30:47;;;;;;;3.70;2.55;;;;;;;;;;5012936;28;20087;-87
2023/01/07 13:33:21;;;;;;;4.00;2.13;;;;;;;;;;5006896;28;20070;-85
2023/01/07 13:36:23;;;;;;;2.88;2.20;;;;;;;;;;5038928;28;20041;-86
2023/01/07 13:39:06;;;;;;;3.47;2.50;;;;;;;;;;5009759;28;20025;-86
2023/01/07 13:42:16;;;;;;;3.83;2.53;;;;;;;;;;5039022;28;20045;-87
2023/01/07 13:45:08;;;;;;;3.80;2.20;;;;;;;;;;5011279;28;20029;-86
2023/01/07 13:51:37;;;;;;;3.25;2.00;;;;;;;;;;5027539;28;20072;-86
2023/01/07 13:54:53;;;;;;;3.75;1.90;;;;;;;;;;4954112;28;20077;-88
2023/01/07 13:57:30;;;;;;;4.15;2.13;;;;;;;;;;4957532;28;20033;-86
2023/01/07 14:00:01;;;;;;;4.93;2.45;;;;;;;;;;5002901;28;20083;-87
2023/01/07 14:03:22;;;;;;;2.25;2.03;;;;;;;;;;5008551;28;20022;-87
2023/01/07 14:05:48;;;;;;;2.58;2.20;;;;;;;;;;5002378;28;20040;-84
2023/01/07 14:08:13;;;;;;;3.03;2.20;;;;;;;;;;5044553;28;20026;-85
2023/01/07 14:10:39;;;;;;;2.58;2.20;;;;;;;;;;5023746;28;20033;-86
2023/01/07 14:13:18;;;;;;;3.85;2.30;;;;;;;;;;5030671;28;20021;-87
2023/01/07 14:16:01;;;;;;;2.88;2.30;;;;;;;;;;5035771;28;20066;-88
2023/01/07 14:19:04;;;;;;;1.95;1.70;;;;;;;;;;5016210;28;20034;-86
2023/01/07 14:21:57;;;;;;;4.10;2.08;;;;;;;;;;5004174;28;20419;-86
2023/01/07 14:24:43;;;;;;;3.35;1.80;;;;;;;;;;5019104;28;20022;-88
2023/01/07 14:27:24;;;;;;;3.15;2.17;;;;;;;;;;5011161;28;20025;-87
2023/01/07 14:29:51;;;;;;;2.80;1.95;;;;;;;;;;5019803;28;20037;-88
2023/01/07 14:32:35;;;;;;;2.85;2.17;;;;;;;;;;5037841;28;20109;-89
2023/01/07 14:35:06;;;;;;;2.47;1.92;;;;;;;;;;5037671;28;20025;-88
2023/01/07 14:37:45;;;;;;;3.88;2.20;;;;;;;;;;5031560;28;20383;-87
2023/01/07 14:40:26;;;;;;;2.28;1.92;;;;;;;;;;5022343;28;20034;-88
2023/01/07 14:53:26;;;;;;;2.97;1.83;;;;;;;;;;4964022;28;20768;-88
2023/01/07 14:59:51;;;;;;;2.45;2.05;;;;;;;;;;4955068;29;20417;-89
2023/01/07 15:02:41;;;;;;;2.35;1.90;;;;;;;;;;5009971;28;20045;-87
2023/01/07 15:05:41;;;;;;;2.33;2.10;;;;;;;;;;5017546;28;20032;-88
2023/01/07 15:16:38;;;;;;;3.03;1.80;;;;;;;;;;5037083;28;20068;-87
2023/01/07 15:19:07;;;;;;;2.90;2.15;;;;;;;;;;5038672;28;20064;-87
2023/01/07 15:21:44;;;;;;;5.30;2.30;;;;;;;;;;5049315;28;20087;-88
2023/01/07 15:24:34;;;;;;;6.90;2.45;;;;;;;;;;5018391;28;20531;-89
2023/01/07 15:27:18;;;;;;;3.15;2.13;;;;;;;;;;5018537;28;20075;-88
2023/01/07 15:29:43;;;;;;;4.25;2.30;;;;;;;;;;5019269;28;20029;-87
2023/01/07 15:32:47;;;;;;;3.92;2.08;;;;;;;;;;5020498;28;20057;-88
2023/01/07 15:35:21;;;;;;;8.32;2.45;;;;;;;;;;5026993;28;20150;-88
2023/01/07 15:37:49;;;;;;;3.80;2.60;;;;;;;;;;5033293;28;20071;-88
2023/01/07 15:40:20;;;;;;;4.57;2.50;;;;;;;;;;5016455;28;20522;-87
2023/01/07 15:42:48;;;;;;;3.65;2.65;;;;;;;;;;5034968;28;20037;-89
2023/01/07 15:45:19;;;;;;;5.22;2.60;;;;;;;;;;5035160;28;20026;-88
2023/01/07 15:47:44;;;;;;;6.60;2.87;;;;;;;;;;5034369;28;20033;-88
2023/01/07 15:50:32;;;;;;;5.80;2.47;;;;;;;;;;5022702;28;20360;-89
2023/01/07 15:52:59;;;;;;;4.13;2.70;;;;;;;;;;5006392;28;20033;-88
2023/01/07 15:55:25;;;;;;;4.75;2.85;;;;;;;;;;5035275;28;20034;-88